Consulta les dades en temps real de l'estació municipal de St. Hilari Sacalm
| Hora UTC | 17:05 |
|---|---|
| Temperatura | 29.0 ºC |
| Humitat | 52.3 % |
| Pressió | 1022.9 hPa |
| Pluja | 0.0 mm |
| Velocitat vent | 5.7 km/h |
| Direcció vent | SE |
| Radiació solar | 37.2 W/m² |
| Temperatura (ºC) | Humitat (%) | Pressió (hPa) | Velocitat vent (km/h) | Precipitació (mm) | Radiació solar (W/m²) | |||||||||||||
|---|---|---|---|---|---|---|---|---|---|---|---|---|---|---|---|---|---|---|
| Hora UTC | Aire | Humitat | Pressió | Vel. | Dir. | Vel. Max | Dir. | Intent. màx 5 min. | Rad. Sol. | |||||||||
| 00:05 | 20.0 | 75.8 | 1024.8 | 0.0 | NNE | 0.0 | WNW | 0.0 | 0.1 | |||||||||
| 00:10 | 20.0 | 76.3 | 1024.7 | 0.0 | NNE | 0.0 | W | 0.0 | 0.1 | |||||||||
| 00:15 | 20.1 | 76.4 | 1024.7 | 0.0 | NNE | 0.0 | W | 0.0 | 0.1 | |||||||||
| 00:20 | 20.1 | 75.8 | 1024.7 | 0.0 | NNE | 0.0 | SW | 0.0 | 0.1 | |||||||||
| 00:25 | 20.1 | 75.9 | 1024.7 | 0.0 | NNE | 0.0 | WSW | 0.0 | 0.1 | |||||||||
| 00:30 | 20.1 | 76.4 | 1024.6 | 0.0 | NNE | 0.0 | W | 0.0 | 0.1 | |||||||||
| 00:35 | 20.3 | 76.6 | 1024.5 | 0.0 | NNE | 0.0 | WNW | 0.0 | 0.1 | |||||||||
| 00:40 | 20.5 | 75.4 | 1024.5 | 0.0 | NNE | 0.0 | W | 0.0 | 0.1 | |||||||||
| 00:45 | 20.5 | 75.2 | 1024.5 | 0.0 | NNE | 0.0 | WSW | 0.0 | 0.1 | |||||||||
| 00:50 | 20.4 | 75.1 | 1024.5 | 0.0 | NNE | 0.0 | WSW | 0.0 | 0.1 | |||||||||
| 00:55 | 20.2 | 76.1 | 1024.4 | 0.0 | NNE | 0.0 | SSW | 0.0 | 0.1 | |||||||||
| 01:00 | 20.1 | 77.1 | 1024.4 | 0.0 | NNE | 0.0 | SW | 0.0 | 0.1 | |||||||||
| 01:05 | 20.0 | 77.6 | 1024.3 | 0.0 | NNE | 0.0 | WNW | 0.0 | 0.1 | |||||||||
| 01:10 | 19.9 | 78.0 | 1024.3 | 0.0 | NNE | 0.0 | W | 0.0 | 0.1 | |||||||||
| 01:15 | 19.9 | 78.2 | 1024.3 | 0.0 | NNE | 0.0 | WNW | 0.0 | 0.1 | |||||||||
| 01:20 | 19.9 | 78.5 | 1024.2 | 0.0 | NNE | 0.0 | W | 0.0 | 0.1 | |||||||||
| 01:25 | 20.0 | 78.1 | 1024.2 | 0.0 | NNE | 0.0 | WSW | 0.0 | 0.1 | |||||||||
| 01:30 | 20.1 | 77.2 | 1024.2 | 0.0 | NNE | 0.0 | S | 0.0 | 0.1 | |||||||||
| 01:35 | 20.0 | 77.7 | 1024.1 | 0.0 | NNE | 0.0 | SW | 0.0 | 0.2 | |||||||||
| 01:40 | 20.0 | 78.2 | 1024.1 | 0.0 | NNE | 0.0 | SW | 0.0 | 0.1 | |||||||||
| 01:45 | 20.1 | 77.8 | 1024.1 | 0.0 | NNE | 0.0 | S | 0.0 | 0.2 | |||||||||
| 01:50 | 20.0 | 77.8 | 1024.1 | 0.0 | NNE | 0.0 | SSW | 0.0 | 0.1 | |||||||||
| 01:55 | 20.0 | 77.8 | 1024.1 | 0.0 | NNE | 0.0 | WSW | 0.0 | 0.1 | |||||||||
| 02:00 | 20.0 | 77.6 | 1024.0 | 0.0 | NNE | 0.0 | S | 0.0 | 0.1 | |||||||||
| 02:05 | 20.1 | 77.2 | 1024.0 | 0.0 | NNE | 0.0 | SSW | 0.0 | 0.1 | |||||||||
| 02:10 | 20.1 | 76.9 | 1024.0 | 0.0 | NNE | 0.0 | SSW | 0.0 | 0.1 | |||||||||
| 02:15 | 20.0 | 76.8 | 1024.0 | 0.0 | NNE | 0.0 | SSW | 0.0 | 0.1 | |||||||||
| 02:20 | 19.9 | 77.2 | 1023.9 | 0.0 | NNE | 0.0 | S | 0.0 | 0.1 | |||||||||
| 02:25 | 19.8 | 77.5 | 1023.9 | 0.0 | NNE | 0.0 | SW | 0.0 | 0.1 | |||||||||
| 02:30 | 19.9 | 76.7 | 1023.9 | 0.0 | NNE | 0.0 | S | 0.0 | 0.1 | |||||||||
| 02:35 | 20.0 | 76.5 | 1023.9 | 0.0 | NNE | 0.0 | S | 0.0 | 0.1 | |||||||||
| 02:40 | 19.8 | 77.0 | 1023.8 | 0.0 | NNE | 0.0 | SSW | 0.0 | 0.2 | |||||||||
| 02:45 | 19.8 | 77.2 | 1023.8 | 0.0 | NNE | 0.0 | SW | 0.0 | 0.2 | |||||||||
| 02:50 | 19.8 | 76.9 | 1023.8 | 0.0 | NNE | 0.0 | SSW | 0.0 | 0.1 | |||||||||
| 02:55 | 19.6 | 77.0 | 1023.8 | 0.0 | NNE | 0.0 | SW | 0.0 | 0.2 | |||||||||
| 03:00 | 19.5 | 77.3 | 1023.8 | 0.0 | NNE | 0.0 | WSW | 0.0 | 0.1 | |||||||||
| 03:05 | 19.5 | 77.1 | 1023.8 | 0.0 | NNE | 0.0 | W | 0.0 | 0.1 | |||||||||
| 03:10 | 19.5 | 77.3 | 1023.8 | 0.0 | NNE | 0.0 | S | 0.0 | 0.1 | |||||||||
| 03:15 | 19.5 | 77.1 | 1023.8 | 0.0 | NNE | 0.0 | NW | 0.0 | 0.1 | |||||||||
| 03:20 | 19.5 | 76.9 | 1023.7 | 0.0 | NNE | 0.0 | W | 0.0 | 0.1 | |||||||||
| 03:25 | 19.6 | 77.0 | 1023.6 | 0.0 | NNE | 0.0 | W | 0.0 | 0.1 | |||||||||
| 03:30 | 19.7 | 76.8 | 1023.6 | 0.0 | NNE | 0.0 | WNW | 0.0 | 0.1 | |||||||||
| 03:35 | 19.5 | 77.1 | 1023.5 | 0.0 | NNE | 0.0 | WSW | 0.0 | 0.1 | |||||||||
| 03:40 | 19.3 | 77.6 | 1023.5 | 0.0 | NNE | 0.0 | SW | 0.0 | 0.1 | |||||||||
| 03:45 | 19.1 | 78.1 | 1023.5 | 0.0 | NNE | 0.0 | SW | 0.0 | 0.1 | |||||||||
| 03:50 | 19.1 | 78.8 | 1023.5 | 0.0 | NNE | 0.0 | W | 0.0 | 0.1 | |||||||||
| 03:55 | 19.2 | 78.7 | 1023.5 | 0.0 | NNE | 0.0 | S | 0.0 | 0.1 | |||||||||
| 04:00 | 19.2 | 79.1 | 1023.5 | 0.0 | NNE | 0.0 | WNW | 0.0 | 0.1 | |||||||||
| 04:05 | 19.3 | 79.0 | 1023.4 | 0.0 | NNE | 0.0 | WSW | 0.0 | 0.1 | |||||||||
| 04:10 | 19.2 | 79.1 | 1023.4 | 0.0 | NNE | 0.0 | SW | 0.0 | 0.1 | |||||||||
| 04:15 | 19.3 | 79.6 | 1023.3 | 0.0 | NNE | 0.0 | W | 0.0 | 0.1 | |||||||||
| 04:20 | 19.2 | 79.2 | 1023.3 | 0.0 | NNE | 0.0 | WSW | 0.0 | 0.1 | |||||||||
| 04:25 | 19.3 | 80.1 | 1023.3 | 0.0 | NNE | 0.0 | WSW | 0.0 | 0.1 | |||||||||
| 04:30 | 19.3 | 79.9 | 1023.3 | 0.0 | NNE | 0.0 | NW | 0.0 | 0.1 | |||||||||
| 04:35 | 19.2 | 80.0 | 1023.3 | 0.0 | NNE | 0.0 | W | 0.0 | 0.1 | |||||||||
| 04:40 | 19.1 | 80.5 | 1023.3 | 0.0 | NNE | 0.0 | SW | 0.0 | 0.1 | |||||||||
| 04:45 | 19.1 | 81.2 | 1023.3 | 0.0 | NNE | 0.0 | SW | 0.0 | 0.1 | |||||||||
| 04:50 | 19.2 | 80.9 | 1023.3 | 0.0 | NNE | 0.0 | WSW | 0.0 | 0.2 | |||||||||
| 04:55 | 19.2 | 80.8 | 1023.3 | 0.0 | NNE | 0.0 | W | 0.0 | 0.2 | |||||||||
| 05:00 | 19.2 | 80.7 | 1023.3 | 0.0 | NNE | 0.0 | WSW | 0.0 | 0.2 | |||||||||
| 05:05 | 19.4 | 80.1 | 1023.3 | 0.0 | NNE | 0.0 | W | 0.0 | 0.5 | |||||||||
| 05:10 | 19.4 | 79.8 | 1023.2 | 0.0 | NNE | 0.0 | WNW | 0.0 | 1.0 | |||||||||
| 05:15 | 19.3 | 80.1 | 1023.2 | 0.0 | NNE | 0.0 | W | 0.0 | 2.0 | |||||||||
| 05:20 | 19.3 | 80.5 | 1023.2 | 0.0 | NNE | 0.0 | SW | 0.0 | 3.6 | |||||||||
| 05:25 | 19.1 | 81.1 | 1023.1 | 0.0 | NNE | 0.0 | WSW | 0.0 | 5.5 | |||||||||
| 05:30 | 19.0 | 81.4 | 1023.1 | 0.0 | NNE | 0.0 | SSW | 0.0 | 7.9 | |||||||||
| 05:35 | 19.0 | 81.6 | 1023.1 | 0.0 | NNE | 0.0 | SSW | 0.0 | 10.8 | |||||||||
| 05:40 | 19.1 | 81.3 | 1023.1 | 0.0 | NNE | 0.0 | SSE | 0.0 | 14.6 | |||||||||
| 05:45 | 19.3 | 80.3 | 1023.0 | 0.0 | NNE | 0.0 | S | 0.0 | 17.5 | |||||||||
| 05:50 | 19.3 | 80.1 | 1023.1 | 0.0 | NNE | 0.0 | SSW | 0.0 | 44.5 | |||||||||
| 05:55 | 19.3 | 80.0 | 1023.1 | 0.0 | NNE | 0.0 | S | 0.0 | 68.8 | |||||||||
| 06:00 | 19.6 | 78.9 | 1023.1 | 0.0 | NNE | 0.0 | SSW | 0.0 | 83.6 | |||||||||
| 06:05 | 20.1 | 76.9 | 1023.2 | 0.0 | NNE | 0.0 | SSW | 0.0 | 97.7 | |||||||||
| 06:10 | 20.3 | 75.5 | 1023.2 | 0.0 | NNE | 0.0 | SSW | 0.0 | 111.4 | |||||||||
| 06:15 | 20.8 | 74.0 | 1023.3 | 0.0 | NNE | 0.0 | SSW | 0.0 | 125.7 | |||||||||
| 06:20 | 21.2 | 72.3 | 1023.3 | 0.0 | NNE | 0.0 | SSW | 0.0 | 140.0 | |||||||||
| 06:25 | 21.9 | 70.0 | 1023.4 | 0.0 | NNE | 0.0 | SSW | 0.0 | 154.9 | |||||||||
| 06:30 | 22.1 | 68.4 | 1023.4 | 0.0 | NNE | 0.0 | SW | 0.0 | 169.4 | |||||||||
| 06:35 | 22.1 | 68.9 | 1023.4 | 0.0 | NNE | 0.0 | SSW | 0.0 | 184.4 | |||||||||
| 06:40 | 22.4 | 67.8 | 1023.4 | 0.0 | NNE | 0.0 | S | 0.0 | 198.7 | |||||||||
| 06:45 | 22.7 | 66.9 | 1023.4 | 0.0 | NNE | 0.0 | S | 0.0 | 214.0 | |||||||||
| 06:50 | 23.3 | 65.1 | 1023.4 | 0.0 | NNE | 0.0 | S | 0.0 | 229.9 | |||||||||
| 06:55 | 24.1 | 62.9 | 1023.3 | 0.0 | NNE | 0.0 | S | 0.0 | 246.1 | |||||||||
| 07:00 | 25.0 | 59.8 | 1023.3 | 0.0 | NNE | 0.0 | E | 0.0 | 260.9 | |||||||||
| 07:05 | 25.8 | 56.0 | 1023.3 | 0.0 | NNE | 0.0 | E | 0.0 | 276.0 | |||||||||
| 07:10 | 26.8 | 50.7 | 1023.4 | 0.0 | NNE | 0.0 | E | 0.0 | 291.1 | |||||||||
| 07:15 | 27.2 | 48.6 | 1023.4 | 0.0 | NNE | 0.0 | ENE | 0.0 | 306.2 | |||||||||
| 07:20 | 27.2 | 46.6 | 1023.4 | 0.0 | NNE | 0.0 | ENE | 0.0 | 321.3 | |||||||||
| 07:25 | 27.2 | 47.3 | 1023.5 | 0.0 | NNE | 0.0 | E | 0.0 | 336.1 | |||||||||
| 07:30 | 26.9 | 47.5 | 1023.5 | 0.0 | NNE | 0.0 | ENE | 0.0 | 351.0 | |||||||||
| 07:35 | 26.9 | 47.0 | 1023.5 | 0.0 | NNE | 0.0 | ENE | 0.0 | 366.2 | |||||||||
| 07:40 | 27.0 | 48.0 | 1023.5 | 0.0 | NNE | 0.0 | NE | 0.0 | 381.4 | |||||||||
| 07:45 | 27.1 | 48.9 | 1023.5 | 0.0 | NNE | 0.0 | NE | 0.0 | 394.5 | |||||||||
| 07:50 | 27.1 | 50.1 | 1023.5 | 0.0 | NNE | 0.0 | E | 0.0 | 376.4 | |||||||||
| 07:55 | 27.0 | 51.3 | 1023.5 | 0.0 | NNE | 0.0 | NE | 0.0 | 425.2 | |||||||||
| 08:00 | 27.1 | 51.1 | 1023.5 | 0.0 | NNE | 0.0 | ENE | 0.0 | 439.5 | |||||||||
| 08:05 | 27.5 | 50.4 | 1023.5 | 0.0 | NNE | 0.0 | NE | 0.0 | 453.4 | |||||||||
| 08:10 | 27.3 | 50.8 | 1023.5 | 0.0 | NNE | 0.0 | NE | 0.0 | 467.0 | |||||||||
| 08:15 | 27.5 | 51.4 | 1023.5 | 0.0 | NNE | 0.0 | ENE | 0.0 | 480.7 | |||||||||
| 08:20 | 27.7 | 50.8 | 1023.6 | 0.0 | NNE | 0.0 | ENE | 0.0 | 493.9 | |||||||||
| 08:25 | 27.6 | 50.8 | 1023.6 | 0.0 | NNE | 0.0 | NE | 0.0 | 507.1 | |||||||||
| 08:30 | 27.5 | 51.2 | 1023.6 | 0.0 | NNE | 0.0 | NE | 0.0 | 520.5 | |||||||||
| 08:35 | 27.4 | 52.0 | 1023.7 | 0.0 | NNE | 0.0 | NE | 0.0 | 532.1 | |||||||||
| 08:40 | 27.5 | 51.2 | 1023.7 | 0.0 | NNE | 0.0 | ENE | 0.0 | 544.5 | |||||||||
| 08:45 | 27.5 | 52.0 | 1023.8 | 0.0 | NNE | 0.0 | NNE | 0.0 | 557.1 | |||||||||
| 08:50 | 27.4 | 50.9 | 1023.8 | 0.0 | NNE | 0.0 | ENE | 0.0 | 569.5 | |||||||||
| 08:55 | 27.6 | 51.3 | 1023.8 | 0.0 | NNE | 0.0 | NE | 0.0 | 581.1 | |||||||||
| 09:00 | 27.9 | 50.5 | 1023.8 | 0.0 | NNE | 0.0 | NE | 0.0 | 592.5 | |||||||||
| 09:05 | 28.0 | 50.6 | 1023.8 | 3.2 | ENE | 11.5 | ENE | 0.0 | 603.6 | |||||||||
| 09:10 | 28.0 | 51.3 | 1023.9 | 3.4 | NE | 8.8 | NE | 0.0 | 614.2 | |||||||||
| 09:15 | 28.0 | 51.3 | 1023.9 | 3.2 | ENE | 11.5 | NNE | 0.0 | 625.1 | |||||||||
| 09:20 | 28.1 | 50.7 | 1024.0 | 4.8 | NE | 11.5 | ENE | 0.0 | 634.4 | |||||||||
| 09:25 | 28.0 | 51.4 | 1024.0 | 4.5 | NE | 11.5 | NNE | 0.0 | 644.5 | |||||||||
| 09:30 | 28.2 | 49.9 | 1024.0 | 7.2 | ENE | 14.2 | ENE | 0.0 | 654.4 | |||||||||
| 09:35 | 28.0 | 50.8 | 1024.0 | 4.7 | NE | 11.5 | NE | 0.0 | 663.5 | |||||||||
| 09:40 | 28.3 | 49.0 | 1024.0 | 6.8 | ENE | 14.2 | NE | 0.0 | 673.4 | |||||||||
| 09:45 | 28.3 | 48.8 | 1024.0 | 6.4 | ENE | 11.5 | ENE | 0.0 | 680.8 | |||||||||
| 09:50 | 28.4 | 49.0 | 1024.1 | 4.1 | NE | 14.2 | E | 0.0 | 688.8 | |||||||||
| 09:55 | 28.5 | 48.6 | 1024.1 | 6.0 | NE | 14.2 | ENE | 0.0 | 696.1 | |||||||||
| 10:00 | 28.6 | 47.4 | 1024.0 | 8.3 | ENE | 14.2 | ENE | 0.0 | 703.5 | |||||||||
| 10:05 | 28.5 | 47.5 | 1024.0 | 7.5 | ENE | 14.2 | ENE | 0.0 | 709.4 | |||||||||
| 10:10 | 28.3 | 48.0 | 1024.0 | 5.2 | NE | 14.2 | ENE | 0.0 | 717.3 | |||||||||
| 10:15 | 28.6 | 47.2 | 1024.0 | 6.2 | ENE | 14.2 | NE | 0.0 | 724.2 | |||||||||
| 10:20 | 28.7 | 46.7 | 1024.0 | 8.0 | ENE | 16.9 | E | 0.0 | 730.9 | |||||||||
| 10:25 | 28.7 | 46.6 | 1024.0 | 5.4 | ENE | 14.2 | NE | 0.0 | 735.3 | |||||||||
| 10:30 | 29.0 | 46.6 | 1023.9 | 4.5 | NE | 14.2 | E | 0.0 | 741.3 | |||||||||
| 10:35 | 29.2 | 45.4 | 1023.9 | 6.8 | ENE | 14.2 | NE | 0.0 | 743.7 | |||||||||
| 10:40 | 28.9 | 45.8 | 1023.9 | 8.1 | ENE | 16.9 | ENE | 0.0 | 749.2 | |||||||||
| 10:45 | 29.2 | 45.8 | 1023.9 | 5.5 | ENE | 14.2 | E | 0.0 | 754.1 | |||||||||
| 10:50 | 29.3 | 44.8 | 1023.9 | 7.6 | ENE | 16.9 | ENE | 0.0 | 757.2 | |||||||||
| 10:55 | 29.2 | 45.0 | 1023.9 | 8.4 | E | 16.9 | E | 0.0 | 762.4 | |||||||||
| 11:00 | 29.1 | 45.2 | 1023.8 | 9.2 | ENE | 16.9 | ENE | 0.0 | 768.0 | |||||||||
| 11:05 | 29.1 | 45.6 | 1023.8 | 6.0 | ENE | 14.2 | E | 0.0 | 770.0 | |||||||||
| 11:10 | 29.7 | 44.8 | 1023.7 | 7.6 | ENE | 16.9 | NE | 0.0 | 771.4 | |||||||||
| 11:15 | 29.7 | 44.6 | 1023.7 | 8.8 | ENE | 16.9 | NE | 0.0 | 772.6 | |||||||||
| 11:20 | 29.5 | 44.8 | 1023.7 | 8.2 | ENE | 16.9 | ENE | 0.0 | 775.0 | |||||||||
| 11:25 | 29.4 | 45.1 | 1023.7 | 10.4 | E | 19.6 | E | 0.0 | 777.5 | |||||||||
| 11:30 | 29.4 | 45.3 | 1023.6 | 8.8 | ENE | 16.9 | NE | 0.0 | 779.8 | |||||||||
| 11:35 | 29.6 | 45.1 | 1023.6 | 6.9 | E | 19.6 | ENE | 0.0 | 778.2 | |||||||||
| 11:40 | 29.7 | 44.6 | 1023.6 | 7.2 | ENE | 19.6 | NE | 0.0 | 776.7 | |||||||||
| 11:45 | 29.6 | 45.1 | 1023.6 | 8.7 | ENE | 19.6 | E | 0.0 | 773.5 | |||||||||
| 11:50 | 29.7 | 45.1 | 1023.6 | 8.8 | ENE | 16.9 | ENE | 0.0 | 773.0 | |||||||||
| 11:55 | 29.7 | 45.2 | 1023.6 | 8.1 | ENE | 14.2 | ENE | 0.0 | 770.0 | |||||||||
| 12:00 | 30.1 | 44.3 | 1023.6 | 7.1 | E | 16.9 | E | 0.0 | 767.6 | |||||||||
| 12:05 | 30.1 | 44.3 | 1023.5 | 8.9 | ENE | 16.9 | NE | 0.0 | 767.6 | |||||||||
| 12:10 | 30.2 | 44.1 | 1023.5 | 8.6 | ENE | 16.9 | E | 0.0 | 765.2 | |||||||||
| 12:15 | 30.3 | 44.3 | 1023.5 | 7.8 | ENE | 14.2 | E | 0.0 | 765.1 | |||||||||
| 12:20 | 30.4 | 44.1 | 1023.5 | 9.8 | ENE | 22.3 | E | 0.0 | 759.7 | |||||||||
| 12:25 | 30.4 | 44.3 | 1023.5 | 8.1 | ENE | 16.9 | E | 0.0 | 756.6 | |||||||||
| 12:30 | 30.5 | 43.8 | 1023.4 | 8.6 | ENE | 16.9 | ENE | 0.0 | 755.5 | |||||||||
| 12:35 | 30.6 | 44.1 | 1023.3 | 8.7 | ENE | 19.6 | NE | 0.0 | 707.6 | |||||||||
| 12:40 | 30.7 | 44.0 | 1023.3 | 7.3 | ENE | 14.2 | E | 0.0 | 742.5 | |||||||||
| 12:45 | 30.8 | 43.9 | 1023.3 | 10.2 | ENE | 22.3 | E | 0.0 | 741.4 | |||||||||
| 12:50 | 30.9 | 45.2 | 1023.3 | 6.4 | ENE | 16.9 | E | 0.0 | 736.8 | |||||||||
| 12:55 | 30.9 | 45.2 | 1023.3 | 10.8 | ENE | 22.3 | ENE | 0.0 | 730.3 | |||||||||
| 13:00 | 30.8 | 46.1 | 1023.3 | 6.7 | ENE | 14.2 | E | 0.0 | 722.2 | |||||||||
| 13:05 | 30.9 | 46.3 | 1023.3 | 6.2 | ENE | 16.9 | E | 0.0 | 718.8 | |||||||||
| 13:10 | 30.7 | 47.1 | 1023.2 | 8.7 | ENE | 19.6 | E | 0.0 | 710.7 | |||||||||
| 13:15 | 30.9 | 46.6 | 1023.2 | 8.3 | E | 16.9 | ENE | 0.0 | 701.9 | |||||||||
| 13:20 | 30.9 | 46.9 | 1023.2 | 4.8 | ENE | 11.5 | NE | 0.0 | 691.6 | |||||||||
| 13:25 | 30.9 | 46.1 | 1023.2 | 7.7 | ENE | 16.9 | ENE | 0.0 | 687.5 | |||||||||
| 13:30 | 30.7 | 47.1 | 1023.2 | 7.5 | ENE | 16.9 | NE | 0.0 | 680.7 | |||||||||
| 13:35 | 30.8 | 46.5 | 1023.1 | 7.9 | ENE | 16.9 | ENE | 0.0 | 671.1 | |||||||||
| 13:40 | 30.8 | 45.9 | 1023.1 | 10.6 | ENE | 19.6 | ENE | 0.0 | 664.0 | |||||||||
| 13:45 | 30.8 | 46.3 | 1023.1 | 8.9 | ENE | 16.9 | E | 0.0 | 655.5 | |||||||||
| 13:50 | 30.9 | 46.2 | 1023.1 | 7.3 | ENE | 14.2 | ENE | 0.0 | 649.6 | |||||||||
| 13:55 | 30.8 | 45.9 | 1023.1 | 7.4 | E | 16.9 | E | 0.0 | 636.8 | |||||||||
| 14:00 | 30.8 | 45.6 | 1023.1 | 7.9 | E | 16.9 | ENE | 0.0 | 626.9 | |||||||||
| 14:05 | 30.6 | 45.9 | 1023.1 | 8.8 | ESE | 16.9 | ESE | 0.0 | 615.7 | |||||||||
| 14:10 | 30.8 | 45.9 | 1023.1 | 4.8 | E | 14.2 | E | 0.0 | 607.0 | |||||||||
| 14:15 | 30.7 | 46.0 | 1023.1 | 4.1 | ENE | 19.6 | ENE | 0.0 | 598.0 | |||||||||
| 14:20 | 30.6 | 46.5 | 1023.1 | 1.5 | ENE | 11.5 | ENE | 0.0 | 587.4 | |||||||||
| 14:25 | 30.7 | 45.4 | 1023.1 | 5.6 | NE | 14.2 | NE | 0.0 | 575.8 | |||||||||
| 14:30 | 30.5 | 42.9 | 1023.1 | 8.6 | E | 19.6 | E | 0.0 | 565.6 | |||||||||
| 14:35 | 30.6 | 43.7 | 1023.1 | 5.5 | ENE | 14.2 | ENE | 0.0 | 555.0 | |||||||||
| 14:40 | 30.6 | 44.8 | 1023.1 | 7.1 | ENE | 14.2 | E | 0.0 | 543.4 | |||||||||
| 14:45 | 30.5 | 44.9 | 1023.1 | 2.4 | E | 14.2 | E | 0.0 | 532.0 | |||||||||
| 14:50 | 30.6 | 43.6 | 1023.0 | 5.1 | E | 14.2 | ENE | 0.0 | 520.9 | |||||||||
| 14:55 | 30.9 | 43.9 | 1023.0 | 5.0 | E | 14.2 | E | 0.0 | 512.1 | |||||||||
| 15:00 | 30.8 | 42.6 | 1023.0 | 8.1 | ENE | 19.6 | NE | 0.0 | 498.8 | |||||||||
| 15:05 | 30.8 | 41.8 | 1023.0 | 4.8 | E | 11.5 | ENE | 0.0 | 485.2 | |||||||||
| 15:10 | 30.8 | 41.4 | 1023.0 | 6.1 | E | 14.2 | NE | 0.0 | 470.3 | |||||||||
| 15:15 | 30.7 | 40.1 | 1023.0 | 5.4 | ESE | 14.2 | SE | 0.0 | 458.0 | |||||||||
| 15:20 | 30.7 | 38.1 | 1023.0 | 6.4 | ESE | 14.2 | SE | 0.0 | 443.0 | |||||||||
| 15:25 | 30.6 | 36.6 | 1023.0 | 8.2 | SE | 16.9 | SE | 0.0 | 425.9 | |||||||||
| 15:30 | 30.6 | 35.3 | 1023.0 | 6.7 | E | 14.2 | SE | 0.0 | 412.3 | |||||||||
| 15:35 | 30.7 | 36.1 | 1023.0 | 7.0 | E | 16.9 | E | 0.0 | 396.7 | |||||||||
| 15:40 | 30.5 | 37.8 | 1023.0 | 7.4 | E | 16.9 | ESE | 0.0 | 379.8 | |||||||||
| 15:45 | 30.4 | 35.8 | 1023.0 | 8.6 | E | 16.9 | ENE | 0.0 | 363.6 | |||||||||
| 15:50 | 30.5 | 36.5 | 1023.0 | 5.0 | E | 14.2 | ENE | 0.0 | 315.1 | |||||||||
| 15:55 | 30.4 | 40.1 | 1023.0 | 6.3 | E | 14.2 | E | 0.0 | 255.6 | |||||||||
| 16:00 | 30.3 | 40.2 | 1023.1 | 5.8 | ESE | 14.2 | E | 0.0 | 270.8 | |||||||||
| 16:05 | 30.1 | 41.7 | 1023.1 | 5.5 | E | 11.5 | ENE | 0.0 | 266.0 | |||||||||
| 16:10 | 30.1 | 42.9 | 1023.1 | 7.9 | E | 14.2 | E | 0.0 | 158.3 | |||||||||
| 16:15 | 30.0 | 43.2 | 1023.1 | 5.0 | E | 11.5 | E | 0.0 | 219.0 | |||||||||
| 16:20 | 29.9 | 43.5 | 1023.0 | 3.7 | E | 11.5 | ESE | 0.0 | 260.4 | |||||||||
| 16:25 | 29.7 | 44.7 | 1023.0 | 5.5 | E | 11.5 | E | 0.0 | 243.7 | |||||||||
| 16:30 | 29.6 | 47.0 | 1023.0 | 2.0 | E | 11.5 | ESE | 0.0 | 117.8 | |||||||||
| 16:35 | 29.4 | 50.2 | 1023.0 | 4.7 | SE | 16.9 | ESE | 0.0 | 52.9 | |||||||||
| 16:40 | 29.4 | 51.7 | 1023.0 | 7.2 | SE | 16.9 | SSE | 0.0 | 48.7 | |||||||||
| 16:45 | 29.2 | 51.8 | 1022.9 | 8.2 | SE | 14.2 | ESE | 0.0 | 45.7 | |||||||||
| 16:50 | 29.2 | 51.8 | 1022.9 | 5.4 | SE | 14.2 | SSE | 0.0 | 43.6 | |||||||||
| 16:55 | 29.2 | 51.5 | 1022.9 | 2.2 | S | 11.5 | S | 0.0 | 41.3 | |||||||||
| 17:00 | 29.1 | 51.5 | 1022.9 | 3.4 | S | 11.5 | WSW | 0.0 | 39.0 | |||||||||
| 17:05 | 29.0 | 52.3 | 1022.9 | 5.7 | SE | 14.2 | ESE | 0.0 | 37.2 | |||||||||
| Màxima | 30.9 | 81.6 | 1024.8 | 10.8 | ENE | 22.3 | ENE | 0.0 | 779.8 | |||||||||
| Mínima | 19.0 | 35.3 | 1022.9 | |||||||||||||||
| Total | 0.0 | |||||||||||||||||